createdAt,value
2022-12-12T00:01:13.157Z,-2.60
2022-12-12T00:03:39.921Z,-2.60
2022-12-12T00:06:06.799Z,-2.60
2022-12-12T00:08:33.482Z,-2.60
2022-12-12T00:11:00.228Z,-2.50
2022-12-12T00:13:26.927Z,-2.50
2022-12-12T00:15:53.622Z,-2.50
2022-12-12T00:18:20.285Z,-2.40
2022-12-12T00:20:55.756Z,-2.40
2022-12-12T00:23:24.911Z,-2.50
2022-12-12T00:26:00.552Z,-2.50
2022-12-12T00:28:27.655Z,-2.50
2022-12-12T00:30:54.694Z,-2.50
2022-12-12T00:33:21.395Z,-2.50
2022-12-12T00:35:54.366Z,-2.50
2022-12-12T00:38:23.086Z,-2.40
2022-12-12T00:40:54.985Z,-2.40
2022-12-12T00:43:21.614Z,-2.30
2022-12-12T00:45:48.309Z,-2.20
2022-12-12T00:48:14.975Z,-2.20
2022-12-12T00:50:41.635Z,-2.10
2022-12-12T00:53:08.281Z,-2.10
2022-12-12T00:55:34.969Z,-2.00
2022-12-12T00:58:01.704Z,-1.80
2022-12-12T01:00:28.954Z,-1.90
2022-12-12T01:02:59.321Z,-2.00
2022-12-12T01:05:26.448Z,-2.00
2022-12-12T01:07:54.051Z,-1.90
2022-12-12T01:10:21.145Z,-1.80
2022-12-12T01:12:47.770Z,-1.80
2022-12-12T01:15:14.867Z,-1.80
2022-12-12T01:17:41.913Z,-1.80
2022-12-12T01:20:20.353Z,-1.90
2022-12-12T01:22:47.365Z,-1.90
2022-12-12T01:25:15.540Z,-1.90
2022-12-12T01:27:42.878Z,-1.90
2022-12-12T01:30:13.980Z,-1.80
2022-12-12T01:32:40.653Z,-1.80
2022-12-12T01:35:08.439Z,-1.80
2022-12-12T01:37:36.185Z,-1.80
2022-12-12T01:40:05.416Z,-1.80
2022-12-12T01:42:32.587Z,-1.80
2022-12-12T01:44:59.862Z,-1.80
2022-12-12T01:47:27.115Z,-1.90
2022-12-12T01:50:01.804Z,-1.80
2022-12-12T01:52:45.537Z,-1.80
2022-12-12T01:55:19.139Z,-1.90
2022-12-12T01:57:49.365Z,-1.80
2022-12-12T02:00:16.910Z,-1.60
2022-12-12T02:02:46.210Z,-1.60
2022-12-12T02:05:30.787Z,-1.70
2022-12-12T02:08:00.938Z,-1.70
2022-12-12T02:10:27.837Z,-1.60
2022-12-12T02:13:02.020Z,-1.50
2022-12-12T02:15:38.974Z,-1.70
2022-12-12T02:18:24.240Z,-1.60
2022-12-12T02:21:06.925Z,-1.70
2022-12-12T02:24:07.677Z,-1.70
2022-12-12T02:27:03.895Z,-1.70
2022-12-12T02:29:50.932Z,-1.60
2022-12-12T02:32:43.825Z,-1.60
2022-12-12T02:35:39.575Z,-1.70
2022-12-12T02:38:21.308Z,-1.60
2022-12-12T02:40:59.014Z,-1.70
2022-12-12T02:43:45.066Z,-1.70
2022-12-12T02:46:21.021Z,-1.60
2022-12-12T02:49:09.723Z,-1.70
2022-12-12T02:51:38.148Z,-1.60
2022-12-12T02:54:11.978Z,-1.50
2022-12-12T02:56:41.698Z,-1.40
2022-12-12T02:59:09.386Z,-1.40
2022-12-12T03:01:49.183Z,-1.40
2022-12-12T03:04:43.317Z,-1.50
2022-12-12T03:07:49.111Z,-1.50
2022-12-12T03:10:36.962Z,-1.60
2022-12-12T03:13:35.865Z,-1.50
2022-12-12T03:16:12.647Z,-1.40
2022-12-12T03:18:57.551Z,-1.40
2022-12-12T03:21:37.421Z,-1.20
2022-12-12T03:24:40.993Z,-1.10
2022-12-12T03:27:14.108Z,-1.00
2022-12-12T03:29:55.455Z,-1.10
2022-12-12T03:32:31.840Z,-1.20
2022-12-12T03:35:03.737Z,-1.20
2022-12-12T03:37:35.074Z,-1.10
2022-12-12T03:40:15.827Z,-1.10
2022-12-12T03:42:50.676Z,-1.00
2022-12-12T03:45:52.455Z,-1.00
2022-12-12T03:48:29.674Z,-1.20
2022-12-12T03:50:59.615Z,-1.10
2022-12-12T03:53:59.324Z,-1.30
2022-12-12T03:56:39.166Z,-1.40
2022-12-12T03:59:11.943Z,-1.40
2022-12-12T04:01:50.279Z,-1.30
2022-12-12T04:04:38.750Z,-1.20
2022-12-12T04:07:29.378Z,-1.10
2022-12-12T04:10:14.848Z,-1.10
2022-12-12T04:13:00.963Z,-1.40
2022-12-12T04:15:47.294Z,-1.40
2022-12-12T04:18:33.161Z,-1.50
2022-12-12T04:21:36.485Z,-1.30
2022-12-12T04:24:18.698Z,-1.40
2022-12-12T04:26:54.411Z,-1.60
2022-12-12T04:29:39.797Z,-1.60
2022-12-12T04:32:42.174Z,-1.50
2022-12-12T04:35:17.023Z,-1.50
2022-12-12T04:37:49.138Z,-1.40
2022-12-12T04:40:42.377Z,-1.40
2022-12-12T04:43:17.217Z,-1.40
2022-12-12T04:45:52.211Z,-1.30
2022-12-12T04:48:26.064Z,-1.30
2022-12-12T04:50:53.372Z,-1.50
2022-12-12T04:53:32.476Z,-1.60
2022-12-12T04:56:01.430Z,-1.50
2022-12-12T04:58:28.246Z,-1.70
2022-12-12T05:01:28.043Z,-1.80
2022-12-12T05:03:58.456Z,-1.80
2022-12-12T05:06:35.461Z,-1.70
2022-12-12T05:09:03.199Z,-1.80
2022-12-12T05:11:30.535Z,-1.80
2022-12-12T05:13:57.204Z,-1.80
2022-12-12T05:16:34.332Z,-1.80
2022-12-12T05:19:01.753Z,-1.70
2022-12-12T05:21:28.646Z,-1.80
2022-12-12T05:23:55.359Z,-1.90
2022-12-12T05:26:27.841Z,-1.90
2022-12-12T05:28:55.180Z,-1.80
2022-12-12T05:31:22.541Z,-1.90
2022-12-12T05:33:50.035Z,-2.00
2022-12-12T05:36:17.607Z,-1.90
2022-12-12T05:38:44.313Z,-2.00
2022-12-12T05:41:11.755Z,-2.10
2022-12-12T05:43:39.070Z,-2.10
2022-12-12T05:46:06.700Z,-1.50
2022-12-12T05:48:34.190Z,-2.00
2022-12-12T05:51:02.066Z,-1.80
2022-12-12T05:53:29.014Z,-1.60
2022-12-12T05:55:55.745Z,-1.50
2022-12-12T05:58:23.117Z,-1.50
2022-12-12T06:00:51.484Z,-1.50
2022-12-12T06:03:19.088Z,-1.50
2022-12-12T06:05:46.128Z,-1.40
2022-12-12T06:08:13.129Z,-1.50
2022-12-12T06:10:39.804Z,-1.40
2022-12-12T06:13:06.766Z,-1.70
2022-12-12T06:15:33.596Z,-1.70
2022-12-12T06:18:00.340Z,-1.80
2022-12-12T06:20:27.096Z,-1.80
2022-12-12T06:22:54.145Z,-1.70
2022-12-12T06:25:21.295Z,-1.50
2022-12-12T06:27:47.966Z,-1.40
2022-12-12T06:30:14.973Z,-1.50
2022-12-12T06:32:41.947Z,-1.40
2022-12-12T06:35:09.520Z,-1.40
2022-12-12T06:37:36.553Z,-1.60
2022-12-12T06:40:04.884Z,-1.70
2022-12-12T06:42:31.613Z,-1.90
2022-12-12T06:44:58.256Z,-1.90
2022-12-12T06:47:24.987Z,-1.90
2022-12-12T06:49:51.656Z,-1.90
2022-12-12T06:52:19.120Z,-1.90
2022-12-12T06:54:46.367Z,-2.10
2022-12-12T06:57:14.336Z,-1.90
2022-12-12T06:59:41.268Z,-1.80
2022-12-12T07:02:11.016Z,-1.90
2022-12-12T07:04:37.858Z,-2.00
2022-12-12T07:07:04.598Z,-2.00
2022-12-12T07:09:31.263Z,-2.00
2022-12-12T07:11:58.099Z,-1.80
2022-12-12T07:14:24.790Z,-1.70
2022-12-12T07:16:51.528Z,-1.70
2022-12-12T07:19:18.134Z,-1.80
2022-12-12T07:21:44.850Z,-1.90
2022-12-12T07:24:12.681Z,-1.90
2022-12-12T07:26:39.370Z,-1.80
2022-12-12T07:29:06.107Z,-1.90
2022-12-12T07:31:33.000Z,-2.00
2022-12-12T07:33:59.721Z,-2.00
2022-12-12T07:36:26.527Z,-2.00
2022-12-12T07:38:53.327Z,-2.10
2022-12-12T07:41:20.895Z,-2.10
2022-12-12T07:43:49.161Z,-2.00
2022-12-12T07:46:20.124Z,-1.80
2022-12-12T07:48:47.184Z,-1.80
2022-12-12T07:51:14.768Z,-1.60
2022-12-12T07:53:41.995Z,-1.80
2022-12-12T07:56:10.785Z,-1.60
2022-12-12T07:58:38.045Z,-1.40
2022-12-12T08:01:18.184Z,-1.40
2022-12-12T08:03:46.217Z,-1.30
2022-12-12T08:06:14.130Z,-1.30
2022-12-12T08:08:40.818Z,-1.30
2022-12-12T08:11:10.074Z,-1.40
2022-12-12T08:13:38.075Z,-1.50
2022-12-12T08:16:07.230Z,-1.40
2022-12-12T08:18:34.208Z,-1.40
2022-12-12T08:21:00.947Z,-1.40
2022-12-12T08:23:27.613Z,-1.40
2022-12-12T08:25:54.327Z,-1.40
2022-12-12T08:28:21.018Z,-1.40
2022-12-12T08:30:51.563Z,-1.40
2022-12-12T08:33:18.680Z,-1.40
2022-12-12T08:35:46.034Z,-1.50
2022-12-12T08:38:13.375Z,-1.50
2022-12-12T08:40:41.760Z,-1.50
2022-12-12T08:43:09.590Z,-1.60
2022-12-12T08:45:38.003Z,-1.60
2022-12-12T08:48:06.436Z,-1.50
2022-12-12T08:50:33.855Z,-1.50
2022-12-12T08:53:00.643Z,-1.70
2022-12-12T08:55:27.355Z,-1.80
2022-12-12T08:57:53.994Z,-1.80
2022-12-12T09:00:20.776Z,-1.90
2022-12-12T09:02:47.518Z,-1.70
2022-12-12T09:05:14.665Z,-1.60
2022-12-12T09:07:41.684Z,-1.80
2022-12-12T09:10:09.165Z,-1.60
2022-12-12T09:12:41.390Z,-1.40
2022-12-12T09:15:09.722Z,-1.30
2022-12-12T09:17:36.639Z,-1.20
2022-12-12T09:20:04.131Z,-1.20
2022-12-12T09:22:31.368Z,-1.10
2022-12-12T09:25:01.145Z,-1.10
2022-12-12T09:27:27.870Z,-1.00
2022-12-12T09:29:54.592Z,-1.10
2022-12-12T09:32:24.757Z,-1.00
2022-12-12T09:34:51.820Z,-1.00
2022-12-12T09:37:18.594Z,-0.90
2022-12-12T09:39:45.301Z,-1.00
2022-12-12T09:42:24.275Z,-1.10
2022-12-12T09:44:53.950Z,-0.90
2022-12-12T09:47:34.485Z,-0.80
2022-12-12T09:50:11.057Z,-0.70
2022-12-12T09:52:38.676Z,-0.70
2022-12-12T09:55:20.404Z,-0.70
2022-12-12T09:58:07.265Z,-0.80
2022-12-12T10:00:39.044Z,-0.90
2022-12-12T10:03:22.617Z,-0.80
2022-12-12T10:09:09.158Z,-0.90
2022-12-12T10:11:54.350Z,-0.80
2022-12-12T10:14:58.136Z,-0.60
2022-12-12T10:17:37.460Z,-0.50
2022-12-12T10:20:15.070Z,-0.50
2022-12-12T10:22:50.942Z,-0.60
2022-12-12T10:25:32.539Z,-0.80
2022-12-12T10:28:24.212Z,-0.80
2022-12-12T10:31:00.161Z,-0.70
2022-12-12T10:33:43.277Z,-0.40
2022-12-12T10:36:27.168Z,-0.40
2022-12-12T10:39:14.184Z,-0.50
2022-12-12T10:41:47.064Z,-0.50
2022-12-12T10:44:34.216Z,-0.40
2022-12-12T10:47:06.929Z,-0.40
2022-12-12T10:49:34.560Z,-0.20
2022-12-12T10:52:06.527Z,-0.20
2022-12-12T10:54:54.599Z,-0.10
2022-12-12T10:57:26.174Z,-0.20
2022-12-12T10:59:56.364Z,-0.20
2022-12-12T11:02:23.094Z,-0.20
2022-12-12T11:04:57.142Z,-0.20
2022-12-12T11:07:23.866Z,-0.10
2022-12-12T11:09:50.557Z,-0.30
2022-12-12T11:12:17.302Z,-0.20
2022-12-12T11:14:53.227Z,-0.20
2022-12-12T11:17:30.181Z,-0.30
2022-12-12T11:19:59.637Z,-0.40
2022-12-12T11:22:27.508Z,-0.30
2022-12-12T11:24:54.732Z,-0.30
2022-12-12T11:27:29.194Z,-0.40
2022-12-12T11:30:02.386Z,-0.10
2022-12-12T11:32:46.325Z,0.00
2022-12-12T11:35:33.166Z,0.00
2022-12-12T11:38:17.063Z,0.10
2022-12-12T11:40:44.799Z,-0.10
2022-12-12T11:43:31.124Z,-0.30
2022-12-12T11:46:15.532Z,0.00
2022-12-12T11:48:51.301Z,0.00
2022-12-12T11:51:33.330Z,0.00
2022-12-12T11:54:01.670Z,0.00
2022-12-12T11:56:37.512Z,0.00
2022-12-12T11:59:32.584Z,0.00
2022-12-12T12:02:30.124Z,-0.10
2022-12-12T12:05:23.591Z,-0.10
2022-12-12T12:08:28.872Z,-0.10
2022-12-12T12:11:38.947Z,0.10
2022-12-12T12:14:27.554Z,-0.10
2022-12-12T12:17:15.848Z,0.00
2022-12-12T12:19:53.587Z,0.00
2022-12-12T12:22:57.235Z,0.30
2022-12-12T12:25:49.767Z,0.30
2022-12-12T12:28:37.696Z,0.50
2022-12-12T12:31:30.676Z,0.50
2022-12-12T12:34:33.443Z,0.50
2022-12-12T12:37:47.909Z,0.30
2022-12-12T12:40:43.622Z,0.40
2022-12-12T12:43:33.610Z,0.30
2022-12-12T12:46:18.641Z,0.30
2022-12-12T12:48:53.054Z,-0.20
2022-12-12T12:51:38.634Z,-0.50
2022-12-12T12:54:23.646Z,-0.50
2022-12-12T12:57:00.429Z,-0.30
2022-12-12T12:59:36.560Z,0.10
2022-12-12T13:02:26.968Z,0.30
2022-12-12T13:05:07.064Z,0.30
2022-12-12T13:07:46.263Z,0.20
2022-12-12T13:10:28.308Z,0.20
2022-12-12T13:13:25.811Z,0.30
2022-12-12T13:16:13.892Z,0.00
2022-12-12T13:18:45.971Z,-0.10
2022-12-12T13:21:24.594Z,-0.40
2022-12-12T13:24:02.842Z,0.10
2022-12-12T13:26:45.190Z,0.40
2022-12-12T13:29:31.740Z,0.50
2022-12-12T13:32:17.299Z,0.00
2022-12-12T13:34:49.630Z,0.30
2022-12-12T13:37:19.419Z,0.30
2022-12-12T13:39:46.961Z,-0.20
2022-12-12T13:42:14.834Z,-0.10
2022-12-12T13:44:46.821Z,0.00
2022-12-12T13:47:22.745Z,0.20
2022-12-12T13:49:52.424Z,0.40
2022-12-12T13:52:24.006Z,0.50
2022-12-12T13:54:53.220Z,-0.10
2022-12-12T13:57:29.567Z,0.10
2022-12-12T13:59:56.221Z,0.30
2022-12-12T14:02:25.723Z,0.30
2022-12-12T14:05:21.339Z,0.00
2022-12-12T14:07:53.751Z,-0.10
2022-12-12T14:10:38.464Z,-0.40
2022-12-12T14:13:23.668Z,-0.50
2022-12-12T14:16:01.463Z,-0.50
2022-12-12T14:18:41.376Z,-0.70
2022-12-12T14:21:13.705Z,-0.60
2022-12-12T14:23:42.924Z,-0.60
2022-12-12T14:26:27.946Z,-0.50
2022-12-12T14:29:16.374Z,-0.20
2022-12-12T14:31:53.443Z,-0.50
2022-12-12T14:34:42.496Z,-0.60
2022-12-12T14:37:15.325Z,-0.60
2022-12-12T14:39:44.789Z,-0.50
2022-12-12T14:43:19.102Z,-0.50
2022-12-12T14:45:25.312Z,-0.50
2022-12-12T14:48:26.131Z,-0.60
2022-12-12T14:50:58.890Z,-0.50
2022-12-12T14:53:28.878Z,-0.60
2022-12-12T14:56:02.174Z,-0.50
2022-12-12T14:58:32.179Z,-0.40
2022-12-12T15:01:01.720Z,-0.30
2022-12-12T15:03:55.035Z,-0.30
2022-12-12T15:06:28.991Z,-0.50
2022-12-12T15:08:58.480Z,-0.50
2022-12-12T15:11:31.497Z,-0.50
2022-12-12T15:14:00.704Z,-0.50
2022-12-12T15:16:34.703Z,-0.50
2022-12-12T15:19:02.146Z,-0.50
2022-12-12T15:21:32.923Z,-0.70
2022-12-12T15:23:59.847Z,-0.60
2022-12-12T15:26:30.815Z,-0.70
2022-12-12T15:28:57.801Z,-0.70
2022-12-12T15:31:24.989Z,-0.70
2022-12-12T15:33:51.798Z,-0.70
2022-12-12T15:36:27.747Z,-0.70
2022-12-12T15:39:12.766Z,-0.80
2022-12-12T15:41:39.826Z,-0.90
2022-12-12T15:44:07.004Z,-0.90
2022-12-12T15:46:33.951Z,-0.90
2022-12-12T15:49:00.596Z,-0.80
2022-12-12T15:51:32.210Z,-0.80
2022-12-12T15:54:00.443Z,-0.90
2022-12-12T15:56:31.544Z,-0.70
2022-12-12T15:59:04.399Z,-0.80
2022-12-12T16:01:31.418Z,-0.90
2022-12-12T16:04:18.402Z,-1.00
2022-12-12T16:06:46.885Z,-1.20
2022-12-12T16:09:22.028Z,-1.20
2022-12-12T16:11:58.867Z,-1.10
2022-12-12T16:14:42.947Z,-1.10
2022-12-12T16:17:20.327Z,-1.10
2022-12-12T16:20:02.407Z,-1.20
2022-12-12T16:22:45.750Z,-1.30
2022-12-12T16:25:32.970Z,-1.30
2022-12-12T16:28:23.199Z,-1.10
2022-12-12T16:30:58.206Z,-1.10
2022-12-12T16:33:37.485Z,-1.20
2022-12-12T16:36:07.459Z,-1.30
2022-12-12T16:38:35.119Z,-1.30
2022-12-12T16:41:05.409Z,-1.10
2022-12-12T16:43:32.330Z,-0.90
2022-12-12T16:45:59.333Z,-1.20
2022-12-12T16:48:35.214Z,-1.40
2022-12-12T16:51:04.851Z,-1.40
2022-12-12T16:53:31.750Z,-1.30
2022-12-12T16:55:58.652Z,-1.10
2022-12-12T16:58:25.405Z,-1.20
2022-12-12T17:00:52.843Z,-1.40
2022-12-12T17:03:20.812Z,-1.60
2022-12-12T17:05:48.232Z,-1.60
2022-12-12T17:08:16.013Z,-1.50
2022-12-12T17:10:46.918Z,-1.40
2022-12-12T17:13:17.416Z,-1.70
2022-12-12T17:15:44.156Z,-1.80
2022-12-12T17:18:11.230Z,-1.90
2022-12-12T17:20:38.350Z,-1.80
2022-12-12T17:25:50.567Z,-1.60
2022-12-12T17:28:19.755Z,-1.70
2022-12-12T17:30:49.895Z,-1.80
2022-12-12T17:33:18.192Z,-1.90
2022-12-12T17:35:45.531Z,-1.90
2022-12-12T17:38:22.565Z,-1.90
2022-12-12T17:40:50.494Z,-1.60
2022-12-12T17:43:21.049Z,-1.40
2022-12-12T17:46:01.175Z,-1.50
2022-12-12T17:48:30.551Z,-1.40
2022-12-12T17:51:02.428Z,-1.20
2022-12-12T17:53:38.075Z,-1.30
2022-12-12T17:56:16.385Z,-1.40
2022-12-12T17:58:45.299Z,-1.40
2022-12-12T18:01:21.246Z,-1.30
2022-12-12T18:03:49.030Z,-1.20
2022-12-12T18:06:16.635Z,-1.30
2022-12-12T18:08:43.659Z,-1.30
2022-12-12T18:11:16.915Z,-1.40
2022-12-12T18:13:44.903Z,-1.60
2022-12-12T18:16:13.238Z,-1.40
2022-12-12T18:18:40.955Z,-1.50
2022-12-12T18:21:43.312Z,-1.40
2022-12-12T18:24:07.119Z,-1.50
2022-12-12T18:26:33.959Z,-1.50
2022-12-12T18:29:04.074Z,-1.50
2022-12-12T18:31:31.508Z,-1.50
2022-12-12T18:33:59.009Z,-1.50
2022-12-12T18:36:28.278Z,-1.50
2022-12-12T18:38:56.289Z,-1.60
2022-12-12T18:41:23.508Z,-2.00
2022-12-12T18:43:50.226Z,-2.50
2022-12-12T18:46:19.262Z,-2.40
2022-12-12T18:48:47.456Z,-2.30
2022-12-12T18:51:17.435Z,-2.10
2022-12-12T18:53:45.143Z,-2.40
2022-12-12T18:56:18.315Z,-2.70
2022-12-12T18:58:45.600Z,-2.50
2022-12-12T19:01:19.023Z,-2.20
2022-12-12T19:03:48.193Z,-2.20
2022-12-12T19:06:17.574Z,-2.30
2022-12-12T19:08:44.741Z,-2.40
2022-12-12T19:11:12.223Z,-2.40
2022-12-12T19:13:39.240Z,-2.50
2022-12-12T19:16:08.034Z,-2.40
2022-12-12T19:18:35.204Z,-2.50
2022-12-12T19:21:10.790Z,-2.70
2022-12-12T19:23:39.420Z,-2.70
2022-12-12T19:26:07.420Z,-2.60
2022-12-12T19:28:34.958Z,-2.90
2022-12-12T19:31:07.719Z,-3.00
2022-12-12T19:33:34.788Z,-3.00
2022-12-12T19:36:01.538Z,-3.00
2022-12-12T19:38:28.271Z,-3.00
2022-12-12T19:40:55.080Z,-3.00
2022-12-12T19:43:21.834Z,-3.20
2022-12-12T19:45:48.611Z,-3.30
2022-12-12T19:48:15.318Z,-3.20
2022-12-12T19:50:41.961Z,-3.20
2022-12-12T19:53:09.014Z,-3.20
2022-12-12T19:55:35.662Z,-3.30
2022-12-12T19:58:03.902Z,-3.40
2022-12-12T20:00:30.644Z,-3.40
2022-12-12T20:02:57.465Z,-3.40
2022-12-12T20:05:24.208Z,-3.30
2022-12-12T20:07:50.945Z,-3.40
2022-12-12T20:10:17.649Z,-3.40
2022-12-12T20:12:56.112Z,-3.40
2022-12-12T20:15:24.823Z,-3.50
2022-12-12T20:17:51.571Z,-3.50
2022-12-12T20:20:18.290Z,-3.40
2022-12-12T20:22:45.092Z,-3.20
2022-12-12T20:25:11.829Z,-3.20
2022-12-12T20:27:38.532Z,-3.30
2022-12-12T20:30:06.417Z,-3.40
2022-12-12T20:32:33.098Z,-3.60
2022-12-12T20:35:00.950Z,-3.70
2022-12-12T20:37:27.628Z,-3.50
2022-12-12T20:39:54.365Z,-3.60
2022-12-12T20:42:21.086Z,-3.50
2022-12-12T20:44:49.006Z,-3.30
2022-12-12T20:47:17.317Z,-3.40
2022-12-12T20:49:44.139Z,-3.50
2022-12-12T20:52:11.041Z,-3.70
2022-12-12T20:54:37.719Z,-3.80
2022-12-12T20:57:04.379Z,-3.80
2022-12-12T20:59:31.179Z,-3.60
2022-12-12T21:01:57.851Z,-3.60
2022-12-12T21:04:24.695Z,-3.70
2022-12-12T21:06:51.911Z,-3.70
2022-12-12T21:09:24.856Z,-3.80
2022-12-12T21:11:54.540Z,-3.90
2022-12-12T21:14:24.343Z,-4.00
2022-12-12T21:16:51.441Z,-3.90
2022-12-12T21:19:19.003Z,-3.70
2022-12-12T21:21:46.140Z,-3.70
2022-12-12T21:24:14.117Z,-3.60
2022-12-12T21:26:40.987Z,-3.60
2022-12-12T21:29:07.695Z,-3.50
2022-12-12T21:31:37.862Z,-3.80
2022-12-12T21:34:05.894Z,-3.80
2022-12-12T21:36:33.799Z,-4.00
2022-12-12T21:39:02.454Z,-4.00
2022-12-12T21:41:29.311Z,-4.00
2022-12-12T21:43:59.450Z,-3.90
2022-12-12T21:46:28.168Z,-3.70
2022-12-12T21:49:14.449Z,-3.70
2022-12-12T21:51:41.778Z,-4.20
2022-12-12T21:54:10.349Z,-3.70
2022-12-12T21:56:37.328Z,-4.10
2022-12-12T21:59:04.388Z,-3.80
2022-12-12T22:01:34.452Z,-4.10
2022-12-12T22:04:01.616Z,-3.90
2022-12-12T22:06:30.918Z,-4.10
2022-12-12T22:08:59.956Z,-4.00
2022-12-12T22:11:40.130Z,-4.00
2022-12-12T22:14:09.307Z,-4.00
2022-12-12T22:16:37.016Z,-4.10
2022-12-12T22:19:07.093Z,-4.10
2022-12-12T22:21:34.721Z,-4.10
2022-12-12T22:24:02.396Z,-4.20
2022-12-12T22:26:39.193Z,-4.30
2022-12-12T22:29:12.278Z,-4.40
2022-12-12T22:31:40.335Z,-4.50
2022-12-12T22:34:11.386Z,-4.50
2022-12-12T22:36:39.303Z,-4.40
2022-12-12T22:39:08.373Z,-4.30
2022-12-12T22:41:35.112Z,-4.50
2022-12-12T22:44:04.988Z,-4.40
2022-12-12T22:46:32.194Z,-4.50
2022-12-12T22:49:01.232Z,-4.40
2022-12-12T22:51:31.135Z,-4.60
2022-12-12T22:53:59.654Z,-4.40
2022-12-12T22:56:28.786Z,-4.50
2022-12-12T22:58:55.679Z,-4.70
2022-12-12T23:01:23.388Z,-4.80
2022-12-12T23:03:51.237Z,-4.80
2022-12-12T23:06:20.520Z,-4.90
2022-12-12T23:08:52.580Z,-4.50
2022-12-12T23:11:20.520Z,-4.60
2022-12-12T23:13:47.419Z,-4.60
2022-12-12T23:16:19.592Z,-4.90
2022-12-12T23:18:47.640Z,-4.90
2022-12-12T23:21:17.483Z,-4.60
2022-12-12T23:23:44.938Z,-4.70
2022-12-12T23:26:19.944Z,-4.80
2022-12-12T23:28:47.297Z,-5.00
2022-12-12T23:31:16.842Z,-4.70
2022-12-12T23:33:43.521Z,-4.70
2022-12-12T23:36:15.188Z,-4.80
2022-12-12T23:38:42.321Z,-5.10
2022-12-12T23:41:11.829Z,-5.00
2022-12-12T23:43:39.043Z,-4.80
2022-12-12T23:46:08.176Z,-4.80
2022-12-12T23:48:35.616Z,-4.90
2022-12-12T23:51:02.457Z,-4.80
2022-12-12T23:53:31.570Z,-4.90
2022-12-12T23:56:04.198Z,-4.90
2022-12-12T23:58:30.899Z,-4.70
